Time;durP1;ratioP1;P1;durP2;ratioP2;P2;SDS_P1;SDS_P2;PMS_P1;PMS_P2;Temp;Humidity;BMP_temperature;BMP_pressure;BME280_temperature;BME280_humidity;BME280_pressure;Samples;Min_cycle;Max_cycle;Signal;HPM_P1;HPM_P2
2022/03/02 00:00:27;;;;;;;7.15;1.13;;;20.80;99.90;;;;;;5096032;28;20305;-77
2022/03/02 00:02:58;;;;;;;7.07;0.98;;;20.80;99.90;;;;;;5095858;28;20184;-78
2022/03/02 00:05:29;;;;;;;7.55;1.00;;;20.60;99.90;;;;;;5095566;28;20524;-76
2022/03/02 00:08:01;;;;;;;7.55;1.05;;;20.60;99.90;;;;;;5095182;28;20294;-81
2022/03/02 00:10:32;;;;;;;4.55;1.00;;;20.50;99.90;;;;;;5095182;28;20189;-75
2022/03/02 00:13:03;;;;;;;6.65;1.30;;;20.40;99.90;;;;;;5095068;28;20202;-81
2022/03/02 00:15:34;;;;;;;12.32;1.88;;;20.40;99.90;;;;;;5095582;28;20188;-79
2022/03/02 00:18:04;;;;;;;14.80;1.70;;;20.40;99.90;;;;;;5095507;28;20214;-81
2022/03/02 00:20:36;;;;;;;10.77;1.75;;;20.50;99.90;;;;;;5095273;28;20213;-79
2022/03/02 00:23:09;;;;;;;7.75;1.30;;;20.50;99.90;;;;;;5094965;28;20688;-86
2022/03/02 00:25:40;;;;;;;12.95;1.30;;;20.40;99.90;;;;;;5095063;28;20187;-84
2022/03/02 00:28:10;;;;;;;12.45;1.50;;;20.40;99.90;;;;;;5094735;28;20212;-83
2022/03/02 00:30:41;;;;;;;12.90;1.23;;;20.40;99.90;;;;;;5094680;28;20188;-80
2022/03/02 00:33:12;;;;;;;9.82;1.55;;;20.40;99.90;;;;;;5094925;28;20188;-84
2022/03/02 00:35:43;;;;;;;14.70;1.90;;;20.50;99.90;;;;;;5094402;28;20778;-81
2022/03/02 00:38:16;;;;;;;17.83;2.28;;;20.60;99.90;;;;;;5094424;28;20184;-83
2022/03/02 00:40:46;;;;;;;16.08;2.33;;;20.70;99.90;;;;;;5074818;28;20243;-85
2022/03/02 00:43:17;;;;;;;13.68;1.77;;;20.80;99.90;;;;;;5091421;28;20196;-82
2022/03/02 00:45:48;;;;;;;21.77;2.58;;;20.80;99.90;;;;;;5074963;28;20192;-85
2022/03/02 00:48:19;;;;;;;26.98;2.88;;;20.90;99.90;;;;;;5091185;28;20207;-85
2022/03/02 00:50:51;;;;;;;28.20;3.03;;;21.00;99.90;;;;;;5093841;28;20226;-83
2022/03/02 00:53:24;;;;;;;25.10;2.83;;;21.00;99.90;;;;;;5091360;28;20203;-84
2022/03/02 00:55:54;;;;;;;11.88;1.65;;;21.10;99.90;;;;;;5090877;28;20194;-86
2022/03/02 00:58:25;;;;;;;14.73;1.40;;;20.90;99.90;;;;;;5091811;28;20253;-80
2022/03/02 01:00:56;;;;;;;14.05;1.50;;;20.70;99.90;;;;;;5090784;28;20188;-86
2022/03/02 01:03:26;;;;;;;9.77;1.70;;;20.60;99.90;;;;;;5083629;28;20664;-87
2022/03/02 01:05:57;;;;;;;11.02;1.30;;;20.50;99.90;;;;;;5090567;28;20648;-84
2022/03/02 01:08:30;;;;;;;12.90;1.27;;;20.50;99.90;;;;;;5094253;28;20212;-86
2022/03/02 01:11:00;;;;;;;10.15;1.30;;;20.40;99.90;;;;;;5094475;28;20189;-85
2022/03/02 01:13:31;;;;;;;9.40;1.20;;;20.40;99.90;;;;;;5094057;28;20193;-85
2022/03/02 01:16:02;;;;;;;8.45;1.30;;;20.40;99.90;;;;;;5094262;28;20250;-84
2022/03/02 01:18:32;;;;;;;9.75;1.40;;;20.50;99.90;;;;;;5093681;28;20185;-88
2022/03/02 01:21:03;;;;;;;13.50;1.48;;;20.50;99.90;;;;;;5093798;28;20659;-86
2022/03/02 01:23:36;;;;;;;13.55;1.67;;;20.60;99.90;;;;;;5093765;28;20187;-82
2022/03/02 01:26:07;;;;;;;11.57;1.80;;;20.70;99.90;;;;;;5093956;28;20575;-83
2022/03/02 01:28:38;;;;;;;13.93;1.80;;;20.70;99.90;;;;;;5094013;28;20327;-84
2022/03/02 01:31:08;;;;;;;17.83;2.03;;;20.90;99.90;;;;;;5093779;28;20188;-84
2022/03/02 01:33:39;;;;;;;13.95;1.77;;;21.00;99.90;;;;;;5093262;28;20224;-79
2022/03/02 01:36:10;;;;;;;15.80;2.05;;;21.00;99.90;;;;;;5093374;28;20238;-79
2022/03/02 01:38:42;;;;;;;12.25;1.67;;;21.00;99.90;;;;;;5093819;28;20230;-81
2022/03/02 01:41:16;;;;;;;13.35;2.08;;;21.00;99.90;;;;;;5093790;28;20184;-82
2022/03/02 01:43:47;;;;;;;15.52;1.98;;;21.00;99.90;;;;;;5092878;28;20184;-86
2022/03/02 01:46:19;;;;;;;14.63;2.00;;;21.00;99.90;;;;;;5093923;28;20275;-81
2022/03/02 01:48:50;;;;;;;14.25;1.83;;;21.00;99.90;;;;;;5093606;28;20219;-85
2022/03/02 01:51:21;;;;;;;14.75;2.13;;;21.10;99.90;;;;;;5093454;28;20628;-83
2022/03/02 01:53:53;;;;;;;13.77;2.10;;;21.00;99.90;;;;;;5093572;28;20527;-79
2022/03/02 01:56:24;;;;;;;14.45;2.67;;;21.00;99.90;;;;;;5082876;28;20568;-81
2022/03/02 01:58:55;;;;;;;13.73;2.17;;;21.10;99.90;;;;;;5093520;28;20200;-76
2022/03/02 02:01:26;;;;;;;18.40;2.53;;;21.00;99.90;;;;;;5093024;28;20188;-82
2022/03/02 02:03:57;;;;;;;16.42;2.22;;;20.90;99.90;;;;;;5090155;28;20189;-80
2022/03/02 02:06:28;;;;;;;17.67;2.30;;;20.90;99.90;;;;;;5093153;28;20188;-83
2022/03/02 02:09:02;;;;;;;16.45;2.28;;;21.00;99.90;;;;;;5093415;28;20243;-79
2022/03/02 02:11:33;;;;;;;14.15;2.42;;;21.00;99.90;;;;;;5093285;28;20196;-79
2022/03/02 02:14:04;;;;;;;20.10;2.55;;;21.10;99.90;;;;;;5093488;28;20192;-76
2022/03/02 02:16:35;;;;;;;17.67;2.97;;;21.10;99.90;;;;;;5093274;28;20184;-76
2022/03/02 02:19:06;;;;;;;16.10;2.72;;;21.00;99.90;;;;;;5093224;28;20188;-78
2022/03/02 02:21:39;;;;;;;21.30;2.75;;;21.00;99.90;;;;;;5092527;28;20200;-79
2022/03/02 02:24:10;;;;;;;16.45;2.65;;;21.10;99.90;;;;;;5093329;28;20191;-79
2022/03/02 02:26:41;;;;;;;22.42;2.70;;;21.20;99.90;;;;;;5093354;28;20192;-80
2022/03/02 02:29:12;;;;;;;27.55;3.42;;;21.30;99.90;;;;;;5093035;28;20223;-79
2022/03/02 02:31:44;;;;;;;17.73;2.55;;;21.40;99.90;;;;;;5073241;28;20275;-79
2022/03/02 02:34:14;;;;;;;20.40;2.97;;;21.50;99.90;;;;;;5088324;28;20230;-81
2022/03/02 02:36:48;;;;;;;24.25;2.90;;;21.50;99.90;;;;;;5093034;28;20231;-80
2022/03/02 02:39:19;;;;;;;23.20;2.70;;;21.50;99.90;;;;;;5092606;28;20188;-79
2022/03/02 02:41:50;;;;;;;15.70;2.10;;;21.40;99.90;;;;;;5093145;28;20636;-79
2022/03/02 02:44:20;;;;;;;13.38;2.00;;;21.20;99.90;;;;;;5093149;28;20199;-79
2022/03/02 02:46:51;;;;;;;13.52;1.80;;;21.20;99.90;;;;;;5072920;28;20630;-79
2022/03/02 02:49:22;;;;;;;14.70;2.00;;;21.20;99.90;;;;;;5072882;28;20220;-79
2022/03/02 02:51:55;;;;;;;19.48;2.17;;;21.20;99.90;;;;;;5072945;28;20193;-80
2022/03/02 02:54:26;;;;;;;12.45;2.13;;;21.30;99.90;;;;;;5072864;28;20189;-84
2022/03/02 02:56:56;;;;;;;13.10;1.38;;;21.30;99.90;;;;;;5076179;28;20185;-78
2022/03/02 02:59:27;;;;;;;10.90;1.85;;;21.10;99.90;;;;;;5093078;28;20196;-80
2022/03/02 03:01:58;;;;;;;10.98;1.70;;;21.00;99.90;;;;;;5093388;28;20277;-79
2022/03/02 03:04:28;;;;;;;11.63;1.75;;;21.00;99.90;;;;;;5093103;28;20249;-80
2022/03/02 03:07:01;;;;;;;11.88;1.88;;;20.80;99.90;;;;;;5092740;28;20199;-80
2022/03/02 03:09:33;;;;;;;15.25;2.25;;;20.80;99.90;;;;;;5072779;28;20228;-80
2022/03/02 03:12:03;;;;;;;14.80;2.25;;;20.80;99.90;;;;;;5080155;28;20192;-77
2022/03/02 03:14:34;;;;;;;16.90;2.00;;;20.80;99.90;;;;;;5094618;28;20189;-79
2022/03/02 03:17:05;;;;;;;15.63;2.00;;;20.70;99.90;;;;;;5096542;28;20192;-77
2022/03/02 03:19:35;;;;;;;14.52;2.30;;;20.70;99.90;;;;;;5096671;28;20275;-81
2022/03/02 03:22:10;;;;;;;13.40;2.22;;;20.70;99.90;;;;;;5096583;28;20238;-79
2022/03/02 03:24:40;;;;;;;13.60;2.63;;;20.70;99.90;;;;;;5096454;28;20626;-81
2022/03/02 03:27:11;;;;;;;24.67;3.10;;;20.80;99.90;;;;;;5096616;28;20724;-78
2022/03/02 03:29:42;;;;;;;18.92;3.15;;;20.80;99.90;;;;;;5096704;28;20683;-81
2022/03/02 03:32:12;;;;;;;20.52;2.85;;;20.90;99.90;;;;;;5096307;28;20192;-80
2022/03/02 03:34:43;;;;;;;21.60;2.95;;;20.90;99.90;;;;;;5095993;28;20212;-82
2022/03/02 03:37:16;;;;;;;18.52;2.63;;;21.00;99.90;;;;;;5096039;28;20236;-81
2022/03/02 03:39:46;;;;;;;16.67;2.20;;;21.00;99.90;;;;;;5096287;28;20184;-82
2022/03/02 03:42:17;;;;;;;16.02;2.28;;;20.90;99.90;;;;;;5096271;28;20193;-79
2022/03/02 03:44:48;;;;;;;16.17;2.20;;;20.90;99.90;;;;;;5096103;28;20275;-80
2022/03/02 03:47:19;;;;;;;16.60;2.50;;;20.80;99.90;;;;;;5096476;28;20184;-80
2022/03/02 03:49:49;;;;;;;23.20;2.40;;;20.90;99.90;;;;;;5096095;28;20238;-80
2022/03/02 03:52:22;;;;;;;25.73;3.22;;;20.90;99.90;;;;;;5095981;28;20193;-79
2022/03/02 03:54:53;;;;;;;17.98;2.55;;;20.90;99.90;;;;;;5096002;28;20275;-79
2022/03/02 03:57:24;;;;;;;22.98;3.15;;;20.90;99.90;;;;;;5095890;28;20544;-79
2022/03/02 03:59:54;;;;;;;22.52;3.67;;;20.90;99.90;;;;;;5095940;28;20196;-78
2022/03/02 04:02:25;;;;;;;26.67;3.40;;;21.00;99.90;;;;;;5095875;28;20208;-81
2022/03/02 04:04:56;;;;;;;28.00;3.42;;;21.00;99.90;;;;;;5095819;28;20254;-80
2022/03/02 04:07:28;;;;;;;27.30;3.22;;;21.10;99.90;;;;;;5095733;28;20541;-80
2022/03/02 04:09:59;;;;;;;19.45;3.38;;;21.00;99.90;;;;;;5095729;28;20212;-80
2022/03/02 04:12:29;;;;;;;21.23;3.05;;;21.00;99.90;;;;;;5095663;28;20188;-80
2022/03/02 04:15:00;;;;;;;23.27;3.13;;;21.00;99.90;;;;;;5095569;28;20197;-79
2022/03/02 04:17:31;;;;;;;27.77;3.78;;;21.00;99.90;;;;;;5095440;28;20190;-80
2022/03/02 04:20:01;;;;;;;26.80;3.35;;;21.00;99.90;;;;;;5095831;28;20279;-81
2022/03/02 04:22:34;;;;;;;21.63;2.92;;;20.90;99.90;;;;;;5095481;28;20565;-79
2022/03/02 04:25:05;;;;;;;20.95;3.00;;;21.00;99.90;;;;;;5094739;28;20246;-79
2022/03/02 04:27:35;;;;;;;20.50;2.70;;;21.00;99.90;;;;;;5094890;28;20196;-80
2022/03/02 04:30:07;;;;;;;24.48;3.33;;;21.00;99.90;;;;;;5075052;28;20624;-79
2022/03/02 04:32:38;;;;;;;21.63;2.72;;;21.00;99.90;;;;;;5075176;28;20561;-80
2022/03/02 04:35:10;;;;;;;22.92;2.90;;;20.90;99.90;;;;;;5093700;28;20265;-81
2022/03/02 04:37:43;;;;;;;22.77;2.65;;;20.90;99.90;;;;;;5095067;28;20663;-80
2022/03/02 04:40:16;;;;;;;21.40;2.90;;;20.90;99.90;;;;;;5095039;28;20196;-80
2022/03/02 04:42:46;;;;;;;19.85;2.58;;;20.90;99.90;;;;;;5095211;28;20188;-80
2022/03/02 04:45:17;;;;;;;27.67;3.60;;;20.90;99.90;;;;;;5095019;28;20246;-79
2022/03/02 04:47:48;;;;;;;26.25;3.42;;;20.90;99.90;;;;;;5094945;28;20550;-82
2022/03/02 04:50:19;;;;;;;22.77;3.38;;;20.90;99.90;;;;;;5094807;28;20683;-80
2022/03/02 04:52:52;;;;;;;19.95;3.10;;;20.90;99.90;;;;;;5094804;28;20184;-81
2022/03/02 04:55:23;;;;;;;25.13;3.67;;;21.00;99.90;;;;;;5094847;28;20192;-80
2022/03/02 04:57:55;;;;;;;25.70;3.40;;;20.90;99.90;;;;;;5094451;28;20189;-79
2022/03/02 05:00:27;;;;;;;27.95;3.03;;;20.90;99.90;;;;;;5094722;28;20250;-77
2022/03/02 05:02:59;;;;;;;24.88;2.83;;;20.90;99.90;;;;;;5094929;28;20275;-80
2022/03/02 05:05:30;;;;;;;23.02;3.20;;;20.90;99.90;;;;;;5094554;28;20195;-81
2022/03/02 05:08:04;;;;;;;18.67;2.60;;;20.90;99.90;;;;;;5094620;28;20224;-81
2022/03/02 05:10:35;;;;;;;27.15;2.75;;;20.80;99.90;;;;;;5094544;28;20199;-80
2022/03/02 05:13:06;;;;;;;25.92;2.92;;;20.80;99.90;;;;;;5094271;28;20556;-80
2022/03/02 05:15:36;;;;;;;15.70;2.35;;;20.80;99.90;;;;;;5094448;28;20191;-80
2022/03/02 05:18:07;;;;;;;19.40;2.88;;;20.80;99.90;;;;;;5094336;28;20191;-81
2022/03/02 05:20:38;;;;;;;15.65;2.35;;;20.80;99.90;;;;;;5094361;28;20184;-80
2022/03/02 05:23:10;;;;;;;14.45;2.47;;;20.80;99.90;;;;;;5094374;28;20631;-81
2022/03/02 05:25:41;;;;;;;15.45;2.40;;;20.80;99.90;;;;;;5094353;28;20585;-81
2022/03/02 05:28:12;;;;;;;21.58;2.45;;;20.70;99.90;;;;;;5093961;28;20242;-82
2022/03/02 05:30:42;;;;;;;17.88;2.40;;;20.70;99.90;;;;;;5094127;28;20204;-81
2022/03/02 05:33:13;;;;;;;14.18;1.73;;;20.70;99.90;;;;;;5093643;28;20289;-81
2022/03/02 05:35:44;;;;;;;16.02;2.05;;;20.70;99.90;;;;;;5093907;28;20224;-82
2022/03/02 05:38:16;;;;;;;17.27;2.30;;;20.70;99.90;;;;;;5093591;28;20204;-82
2022/03/02 05:40:47;;;;;;;15.57;2.20;;;20.70;99.90;;;;;;5093927;28;20249;-83
2022/03/02 05:43:17;;;;;;;16.98;2.40;;;20.70;99.90;;;;;;5093965;28;20184;-82
2022/03/02 05:45:48;;;;;;;18.30;2.28;;;20.70;99.90;;;;;;5094059;28;20231;-81
2022/03/02 05:48:19;;;;;;;19.08;2.55;;;20.80;99.90;;;;;;5093929;28;20192;-80
2022/03/02 05:50:52;;;;;;;24.02;2.70;;;20.80;99.90;;;;;;5093975;28;20196;-80
2022/03/02 05:53:24;;;;;;;24.13;2.80;;;20.80;99.90;;;;;;5093776;28;20196;-79
2022/03/02 05:55:55;;;;;;;18.45;2.60;;;20.80;99.90;;;;;;5093710;28;20214;-79
2022/03/02 05:58:27;;;;;;;21.95;2.60;;;20.80;99.90;;;;;;5093709;28;20208;-81
2022/03/02 06:00:59;;;;;;;19.52;2.70;;;20.80;99.90;;;;;;5093730;28;20199;-81
2022/03/02 06:03:31;;;;;;;18.30;2.83;;;20.80;99.90;;;;;;5092207;28;20210;-81
2022/03/02 06:06:02;;;;;;;25.48;2.97;;;20.80;99.90;;;;;;5093775;28;20235;-82
2022/03/02 06:08:36;;;;;;;14.20;2.35;;;20.80;99.90;;;;;;5093568;28;20188;-82
2022/03/02 06:11:06;;;;;;;21.08;2.78;;;20.80;99.90;;;;;;5093464;28;20565;-81
2022/03/02 06:13:37;;;;;;;15.13;2.50;;;20.90;99.90;;;;;;5093247;28;20195;-82
2022/03/02 06:16:09;;;;;;;19.73;2.42;;;20.90;99.90;;;;;;5093400;28;20206;-81
2022/03/02 06:18:40;;;;;;;23.33;2.72;;;20.90;99.90;;;;;;5093563;28;20191;-82
2022/03/02 06:21:13;;;;;;;29.48;3.25;;;20.90;99.90;;;;;;5093445;28;20188;-81
2022/03/02 06:23:47;;;;;;;24.27;2.92;;;20.90;99.90;;;;;;5093548;28;20698;-81
2022/03/02 06:26:18;;;;;;;19.05;2.58;;;20.90;99.90;;;;;;5093422;28;20642;-81
2022/03/02 06:28:48;;;;;;;26.10;3.78;;;20.90;99.90;;;;;;5093389;28;20220;-81
2022/03/02 06:31:19;;;;;;;27.27;3.08;;;20.90;99.90;;;;;;5093350;28;20188;-81
2022/03/02 06:33:50;;;;;;;19.25;3.00;;;20.90;99.90;;;;;;5081605;28;20695;-82
2022/03/02 06:36:21;;;;;;;25.48;3.40;;;21.00;99.90;;;;;;5093305;28;20263;-81
2022/03/02 06:38:53;;;;;;;21.35;3.40;;;21.00;99.90;;;;;;5093179;28;20184;-82
2022/03/02 06:41:31;;;;;;;34.08;3.70;;;21.00;99.90;;;;;;5093528;28;20188;-83
2022/03/02 06:44:06;;;;;;;24.75;3.40;;;21.00;99.90;;;;;;5093258;28;20184;-82
2022/03/02 06:46:45;;;;;;;24.92;3.60;;;21.00;99.90;;;;;;5093355;28;20585;-82
2022/03/02 06:49:26;;;;;;;22.70;3.70;;;21.00;99.90;;;;;;5094516;28;20216;-82
2022/03/02 06:52:01;;;;;;;20.88;3.35;;;21.00;99.90;;;;;;5097163;28;20188;-84
2022/03/02 06:54:34;;;;;;;20.90;3.10;;;21.00;99.90;;;;;;5097095;28;20248;-83
2022/03/02 06:57:07;;;;;;;26.27;3.47;;;21.10;99.90;;;;;;5097382;28;20188;-83
2022/03/02 06:59:42;;;;;;;22.65;3.60;;;21.10;99.90;;;;;;5097133;28;20690;-82
2022/03/02 07:02:15;;;;;;;23.45;2.88;;;21.10;99.90;;;;;;5097191;28;20188;-81
2022/03/02 07:04:46;;;;;;;24.02;2.95;;;21.10;99.90;;;;;;5097191;28;20249;-83
2022/03/02 07:07:17;;;;;;;30.08;3.55;;;21.20;99.90;;;;;;5097070;28;20188;-82
2022/03/02 07:09:50;;;;;;;14.60;2.33;;;21.20;99.90;;;;;;5096946;28;20219;-81
2022/03/02 07:12:22;;;;;;;14.02;2.05;;;21.00;99.90;;;;;;5096998;28;20317;-82
2022/03/02 07:14:55;;;;;;;19.30;2.60;;;20.80;99.90;;;;;;5096847;28;20272;-82
2022/03/02 07:17:26;;;;;;;13.85;2.20;;;20.80;99.90;;;;;;5096668;28;20192;-83
2022/03/02 07:19:57;;;;;;;17.13;1.92;;;20.80;99.90;;;;;;5096810;28;20185;-82
2022/03/02 07:22:34;;;;;;;19.73;2.67;;;20.80;99.90;;;;;;5096532;28;20219;-82
2022/03/02 07:25:10;;;;;;;27.23;3.13;;;20.70;99.90;;;;;;5096718;28;20187;-81
2022/03/02 07:27:42;;;;;;;17.30;2.50;;;20.80;99.90;;;;;;5096853;28;20192;-81
2022/03/02 07:30:14;;;;;;;17.77;2.97;;;20.80;99.90;;;;;;5096567;28;20687;-81
2022/03/02 07:32:47;;;;;;;20.17;3.50;;;20.80;99.90;;;;;;5096648;28;20239;-77
2022/03/02 07:35:20;;;;;;;13.98;2.83;;;20.80;99.90;;;;;;5095378;28;20180;-76
2022/03/02 07:37:51;;;;;;;15.02;2.40;;;20.80;99.90;;;;;;5096272;28;20203;-77
2022/03/02 07:40:23;;;;;;;16.23;3.00;;;20.70;99.90;;;;;;5096360;28;20298;-77
2022/03/02 07:42:57;;;;;;;14.00;2.67;;;20.70;99.90;;;;;;5096247;28;20632;-76
2022/03/02 07:45:28;;;;;;;18.15;2.47;;;20.70;99.90;;;;;;5096359;28;20189;-78
2022/03/02 07:47:59;;;;;;;19.92;2.80;;;20.70;99.90;;;;;;5096278;28;20598;-79
2022/03/02 07:50:29;;;;;;;20.73;2.92;;;20.70;99.90;;;;;;5096133;28;20285;-80
2022/03/02 07:53:02;;;;;;;25.83;3.30;;;20.60;99.90;;;;;;5095987;28;20237;-80
2022/03/02 07:55:37;;;;;;;25.25;3.22;;;20.60;99.90;;;;;;5096105;28;20199;-81
2022/03/02 07:58:08;;;;;;;33.55;3.40;;;20.60;99.90;;;;;;5096364;28;20216;-82
2022/03/02 08:00:38;;;;;;;33.85;3.60;;;20.60;99.90;;;;;;5095759;28;20203;-82
2022/03/02 08:03:11;;;;;;;26.48;3.30;;;20.60;99.90;;;;;;5095977;28;20196;-81
2022/03/02 08:05:43;;;;;;;31.70;3.42;;;20.60;99.90;;;;;;5095719;28;20196;-82
2022/03/02 08:08:14;;;;;;;25.65;3.60;;;20.60;99.90;;;;;;5096051;28;20199;-79
2022/03/02 08:10:48;;;;;;;20.63;2.40;;;20.60;99.90;;;;;;5095203;28;20212;-81
2022/03/02 08:13:18;;;;;;;22.08;2.80;;;20.50;99.90;;;;;;5095568;28;20218;-82
2022/03/02 08:15:49;;;;;;;25.30;3.30;;;20.50;99.90;;;;;;5095820;28;20279;-80
2022/03/02 08:18:20;;;;;;;23.05;3.20;;;20.50;99.90;;;;;;5095670;28;20654;-79
2022/03/02 08:20:55;;;;;;;17.00;1.95;;;20.50;99.90;;;;;;5095104;28;20211;-81
2022/03/02 08:23:26;;;;;;;11.75;1.40;;;20.40;99.90;;;;;;5084341;28;20206;-83
2022/03/02 08:25:59;;;;;;;13.23;1.70;;;20.30;99.90;;;;;;5091641;28;20648;-78
2022/03/02 08:28:33;;;;;;;17.40;2.30;;;20.20;99.90;;;;;;5093046;28;20184;-80
2022/03/02 08:31:04;;;;;;;13.85;2.00;;;20.10;99.90;;;;;;5092670;28;20234;-79
2022/03/02 08:33:37;;;;;;;18.83;2.72;;;20.10;99.90;;;;;;5094766;28;20212;-78
2022/03/02 08:36:08;;;;;;;16.05;2.28;;;20.10;99.90;;;;;;5094556;28;20238;-80
2022/03/02 08:38:42;;;;;;;16.35;2.30;;;20.00;99.90;;;;;;5095224;28;20184;-81
2022/03/02 08:41:15;;;;;;;17.48;2.25;;;20.10;99.90;;;;;;5095317;28;20194;-81
2022/03/02 08:43:46;;;;;;;17.75;2.17;;;20.00;99.90;;;;;;5094788;28;20659;-79
2022/03/02 08:46:17;;;;;;;18.05;3.03;;;20.10;99.90;;;;;;5095032;28;20184;-80
2022/03/02 08:48:48;;;;;;;24.67;2.67;;;20.10;99.90;;;;;;5095103;28;20185;-79
2022/03/02 08:51:20;;;;;;;18.77;2.83;;;20.10;99.90;;;;;;5094185;28;20208;-79
2022/03/02 08:53:53;;;;;;;17.08;2.45;;;20.10;99.90;;;;;;5093821;28;20608;-78
2022/03/02 08:56:27;;;;;;;22.95;3.35;;;20.10;99.90;;;;;;5093937;28;20230;-80
2022/03/02 08:58:58;;;;;;;26.45;3.13;;;20.10;99.90;;;;;;5091106;28;20271;-79
2022/03/02 09:01:31;;;;;;;23.63;3.05;;;20.10;99.90;;;;;;5094538;28;20192;-81
2022/03/02 09:04:04;;;;;;;17.13;2.60;;;20.10;99.90;;;;;;5091258;28;20275;-79
2022/03/02 09:06:36;;;;;;;22.63;3.08;;;20.10;99.90;;;;;;5093825;28;20188;-81
2022/03/02 09:09:09;;;;;;;24.48;3.15;;;20.20;99.90;;;;;;5094156;28;20185;-79
2022/03/02 09:11:43;;;;;;;29.17;3.38;;;20.20;99.90;;;;;;5093309;28;20208;-79
2022/03/02 09:14:13;;;;;;;32.28;3.17;;;20.10;99.90;;;;;;5094634;28;20188;-81
2022/03/02 09:16:44;;;;;;;26.35;3.45;;;20.10;99.90;;;;;;5093671;28;20191;-82
2022/03/02 09:19:15;;;;;;;29.75;3.42;;;20.10;99.90;;;;;;5093600;28;20189;-82
2022/03/02 09:21:46;;;;;;;24.55;2.95;;;20.10;99.90;;;;;;5093806;28;20244;-82
2022/03/02 09:24:17;;;;;;;32.20;3.70;;;20.10;99.90;;;;;;5093751;28;20191;-82
2022/03/02 09:26:51;;;;;;;24.55;3.22;;;20.10;99.90;;;;;;5093145;28;20188;-82
2022/03/02 09:29:22;;;;;;;29.23;3.58;;;20.10;99.90;;;;;;5093622;28;20242;-82
2022/03/02 09:31:54;;;;;;;23.40;3.25;;;20.10;99.90;;;;;;5094198;28;20208;-82
2022/03/02 09:34:29;;;;;;;22.42;3.25;;;20.10;99.90;;;;;;5092998;28;20679;-83
2022/03/02 09:37:01;;;;;;;18.63;3.33;;;20.10;99.90;;;;;;5089735;28;20259;-81
2022/03/02 09:39:32;;;;;;;30.80;3.50;;;20.10;99.90;;;;;;5093319;28;20196;-82
2022/03/02 09:42:06;;;;;;;23.58;3.40;;;20.20;99.90;;;;;;5093286;28;20192;-84
2022/03/02 09:44:44;;;;;;;33.03;3.97;;;20.20;99.90;;;;;;5092876;28;20274;-84
2022/03/02 09:47:21;;;;;;;28.30;3.90;;;20.20;99.90;;;;;;5092318;28;20188;-83
2022/03/02 09:49:55;;;;;;;22.90;3.58;;;20.20;99.90;;;;;;5092784;28;20271;-84
2022/03/02 09:52:26;;;;;;;26.75;3.78;;;20.30;99.90;;;;;;5092641;28;20192;-85
2022/03/02 09:54:58;;;;;;;27.65;3.70;;;20.30;99.90;;;;;;5093439;28;20265;-83
2022/03/02 09:57:31;;;;;;;22.63;3.53;;;20.30;99.90;;;;;;5092161;28;20196;-84
2022/03/02 10:00:01;;;;;;;28.73;3.70;;;20.40;99.90;;;;;;5089642;28;20234;-83
2022/03/02 10:02:40;;;;;;;29.67;4.00;;;20.40;99.90;;;;;;5091967;28;20192;-84
2022/03/02 10:05:15;;;;;;;35.80;4.05;;;20.40;99.90;;;;;;5092400;28;20192;-84
2022/03/02 10:07:53;;;;;;;34.20;5.18;;;20.40;99.90;;;;;;5092319;28;20267;-82
2022/03/02 10:10:25;;;;;;;32.88;4.40;;;20.40;99.90;;;;;;5092309;28;20204;-83
2022/03/02 10:13:01;;;;;;;32.10;3.78;;;20.40;99.90;;;;;;5092146;28;20662;-85
2022/03/02 10:15:32;;;;;;;39.80;4.63;;;20.50;99.90;;;;;;5090653;28;20188;-87
2022/03/02 10:18:05;;;;;;;40.33;5.20;;;20.50;99.90;;;;;;5091829;28;20643;-84
2022/03/02 10:20:39;;;;;;;39.47;5.22;;;20.50;99.90;;;;;;5092425;28;20273;-82
2022/03/02 10:23:26;;;;;;;37.35;4.55;;;20.50;99.90;;;;;;5091805;28;20338;-83
2022/03/02 10:26:06;;;;;;;35.30;4.78;;;20.50;99.90;;;;;;5088762;28;20198;-83
2022/03/02 10:28:47;;;;;;;40.03;4.65;;;20.50;99.90;;;;;;5083073;28;20272;-84
2022/03/02 10:31:44;;;;;;;44.45;4.82;;;20.50;99.90;;;;;;5092316;28;20222;-83
2022/03/02 10:34:39;;;;;;;36.67;4.85;;;20.50;99.90;;;;;;5091721;28;20227;-83
2022/03/02 10:37:32;;;;;;;37.65;4.32;;;20.50;99.90;;;;;;5002232;28;2514633;-83
2022/03/02 10:40:09;;;;;;;41.42;4.85;;;20.50;99.90;;;;;;5090242;28;20189;-83
2022/03/02 10:42:42;;;;;;;39.33;4.97;;;20.50;99.90;;;;;;5092560;28;20195;-82
2022/03/02 10:45:17;;;;;;;43.03;4.43;;;20.50;99.90;;;;;;5092832;28;20193;-83
2022/03/02 10:48:00;;;;;;;32.35;4.68;;;20.50;99.90;;;;;;5085162;28;20187;-84
2022/03/02 10:50:34;;;;;;;37.55;4.93;;;20.50;99.90;;;;;;5090819;28;20204;-84
2022/03/02 10:53:07;;;;;;;34.08;4.22;;;20.50;99.90;;;;;;5092565;28;20272;-83
2022/03/02 10:55:38;;;;;;;39.75;4.38;;;20.50;99.90;;;;;;5092874;28;20184;-84
2022/03/02 10:58:09;;;;;;;29.67;3.65;;;20.60;99.90;;;;;;5092469;28;20188;-83
2022/03/02 11:00:42;;;;;;;34.42;4.03;;;20.50;99.90;;;;;;5092366;28;20193;-83
2022/03/02 11:03:13;;;;;;;39.65;4.50;;;20.50;99.90;;;;;;5092452;28;20267;-83
2022/03/02 11:05:44;;;;;;;43.05;4.93;;;20.50;99.90;;;;;;5092819;28;20195;-82
2022/03/02 11:08:17;;;;;;;36.65;4.13;;;20.50;99.90;;;;;;5092741;28;20193;-83
2022/03/02 11:10:49;;;;;;;37.33;4.25;;;20.60;99.90;;;;;;5091913;28;20284;-84
2022/03/02 11:13:22;;;;;;;33.85;4.10;;;20.60;99.90;;;;;;5092883;28;20192;-84
2022/03/02 11:15:56;;;;;;;33.55;3.72;;;20.60;99.90;;;;;;5093021;28;20188;-83
2022/03/02 11:18:36;;;;;;;41.05;4.82;;;20.50;99.90;;;;;;5092129;28;20184;-85
2022/03/02 11:21:10;;;;;;;33.88;3.90;;;20.60;99.90;;;;;;5090653;28;20199;-85
2022/03/02 11:23:46;;;;;;;30.00;4.28;;;20.60;99.90;;;;;;5092024;28;20185;-85
2022/03/02 11:26:18;;;;;;;23.85;3.70;;;20.60;99.90;;;;;;5092519;28;20602;-83
2022/03/02 11:28:51;;;;;;;35.03;3.80;;;20.60;99.90;;;;;;5091510;28;20279;-84
2022/03/02 11:31:29;;;;;;;33.33;5.00;;;20.60;99.90;;;;;;5091995;28;20250;-84
2022/03/02 11:34:13;;;;;;;33.25;4.57;;;20.60;99.90;;;;;;5088849;28;20216;-83
2022/03/02 11:36:46;;;;;;;38.65;4.57;;;20.60;99.90;;;;;;5095124;28;20577;-83
2022/03/02 11:39:18;;;;;;;35.35;5.38;;;20.60;99.90;;;;;;5096001;28;20184;-85
2022/03/02 11:41:53;;;;;;;35.58;4.68;;;20.70;99.90;;;;;;5094825;28;20200;-83
2022/03/02 11:44:31;;;;;;;43.05;5.18;;;20.70;99.90;;;;;;5084775;28;20185;-85
2022/03/02 11:47:05;;;;;;;51.10;6.07;;;20.70;99.90;;;;;;5095878;28;20188;-86
2022/03/02 11:49:46;;;;;;;42.47;5.18;;;20.70;99.90;;;;;;5095532;28;20185;-85
2022/03/02 11:52:18;;;;;;;39.38;4.93;;;20.70;99.90;;;;;;5095770;28;20300;-86
2022/03/02 11:54:51;;;;;;;39.65;5.47;;;20.80;99.90;;;;;;5094625;28;20534;-87
2022/03/02 11:57:23;;;;;;;41.35;4.97;;;20.70;99.90;;;;;;5095254;28;20189;-84
2022/03/02 12:00:12;;;;;;;41.65;5.22;;;20.70;99.90;;;;;;5095446;28;20269;-86
2022/03/02 12:02:50;;;;;;;31.50;4.78;;;20.70;99.90;;;;;;5087088;28;20228;-84
2022/03/02 12:05:24;;;;;;;34.92;4.80;;;20.70;99.90;;;;;;5095160;28;20271;-82
2022/03/02 12:08:02;;;;;;;37.83;4.63;;;20.70;99.90;;;;;;5095398;28;20184;-80
2022/03/02 12:10:34;;;;;;;36.47;4.57;;;20.80;99.90;;;;;;5093873;28;20548;-82
2022/03/02 12:13:05;;;;;;;31.88;3.90;;;20.70;99.90;;;;;;5095128;28;20188;-83
2022/03/02 12:15:47;;;;;;;29.42;4.07;;;20.80;99.90;;;;;;5095319;28;20188;-81
2022/03/02 12:18:21;;;;;;;37.90;4.78;;;20.80;99.90;;;;;;5095036;28;20196;-81
2022/03/02 12:20:53;;;;;;;35.70;5.30;;;20.70;99.90;;;;;;5094355;28;20203;-82
2022/03/02 12:23:27;;;;;;;38.00;4.65;;;20.80;99.90;;;;;;5084238;28;20234;-80
2022/03/02 12:26:00;;;;;;;30.20;4.75;;;20.80;99.90;;;;;;5091468;28;20202;-82
2022/03/02 12:28:31;;;;;;;36.33;4.60;;;20.70;99.90;;;;;;5094333;28;20627;-80
2022/03/02 12:31:02;;;;;;;35.75;4.63;;;20.80;99.90;;;;;;5092400;28;20312;-81
2022/03/02 12:33:34;;;;;;;38.67;4.93;;;20.80;99.90;;;;;;5094169;28;20218;-80
2022/03/02 12:36:06;;;;;;;33.10;4.80;;;20.80;99.90;;;;;;5094433;28;20224;-82
2022/03/02 12:38:37;;;;;;;27.27;4.07;;;20.80;99.90;;;;;;5094370;28;20562;-84
2022/03/02 12:41:08;;;;;;;27.75;4.18;;;20.80;99.90;;;;;;5094978;28;20192;-80
2022/03/02 12:43:39;;;;;;;34.10;4.05;;;20.80;99.90;;;;;;5094417;28;20195;-81
2022/03/02 12:46:10;;;;;;;32.85;5.30;;;20.80;99.90;;;;;;5094487;28;20192;-79
2022/03/02 12:48:43;;;;;;;28.70;3.60;;;20.80;99.90;;;;;;5094378;28;20232;-81
2022/03/02 12:51:16;;;;;;;41.13;4.75;;;20.80;99.90;;;;;;5094629;28;20293;-80
2022/03/02 12:53:50;;;;;;;30.98;4.22;;;20.80;99.90;;;;;;5086528;28;20192;-78
2022/03/02 12:56:21;;;;;;;27.52;3.85;;;20.80;99.90;;;;;;5094463;28;20196;-81
2022/03/02 12:58:51;;;;;;;27.30;4.25;;;20.80;99.90;;;;;;5094797;28;20197;-81
2022/03/02 13:01:22;;;;;;;36.95;4.68;;;20.80;99.90;;;;;;5094780;28;20202;-79
2022/03/02 13:03:57;;;;;;;26.80;4.20;;;20.80;99.90;;;;;;5094732;28;20659;-79